createdAt,value
2018-08-30T06:31:23.151Z,24.6
2018-08-30T06:31:34.378Z,24.6
2018-08-30T06:32:24.181Z,24.6
2018-08-30T06:33:14.707Z,24.6
2018-08-30T06:34:04.282Z,24.7
2018-08-30T06:34:56.469Z,24.6
2018-08-30T06:35:45.043Z,24.6
2018-08-30T06:36:34.861Z,24.6
2018-08-30T06:37:24.554Z,24.6
2018-08-30T06:38:14.572Z,24.6
2018-08-30T06:39:05.160Z,24.6
2018-08-30T06:39:54.389Z,24.6
2018-08-30T06:40:45.392Z,24.7
2018-08-30T06:41:35.842Z,24.7
2018-08-30T06:42:25.171Z,24.7
2018-08-30T06:43:15.502Z,24.7
2018-08-30T06:44:05.159Z,24.6
2018-08-30T06:44:55.061Z,24.7
2018-08-30T06:45:44.602Z,24.7
2018-08-30T06:46:36.098Z,24.7
2018-08-30T06:47:25.863Z,24.7
2018-08-30T06:48:16.153Z,24.7
2018-08-30T06:49:08.715Z,24.7
2018-08-30T06:49:55.541Z,24.7
2018-08-30T06:50:46.369Z,24.7
2018-08-30T06:51:36.472Z,24.7
2018-08-30T06:52:26.572Z,24.7
2018-08-30T06:53:16.005Z,24.7
2018-08-30T06:54:05.731Z,24.7
2018-08-30T06:54:55.551Z,24.7
2018-08-30T06:55:46.496Z,24.8
2018-08-30T06:56:37.344Z,24.8
2018-08-30T06:57:26.063Z,24.7
2018-08-30T06:58:16.829Z,24.7
2018-08-30T06:59:06.156Z,24.8
2018-08-30T06:59:55.716Z,24.7
2018-08-30T07:00:45.173Z,24.8
2018-08-30T07:01:37.040Z,24.8
2018-08-30T07:02:26.673Z,24.8
2018-08-30T07:03:15.730Z,24.8
2018-08-30T07:04:07.875Z,24.8
2018-08-30T07:04:57.058Z,24.8
2018-08-30T07:05:46.897Z,24.8
2018-08-30T07:06:37.583Z,24.8
2018-08-30T07:07:27.336Z,24.8
2018-08-30T07:08:19.328Z,24.8
2018-08-30T07:09:06.340Z,24.8
2018-08-30T07:09:56.947Z,24.8
2018-08-30T07:10:47.335Z,24.8
2018-08-30T07:11:37.983Z,24.8
2018-08-30T07:12:27.442Z,24.8
2018-08-30T07:13:17.800Z,24.8
2018-08-30T07:14:07.958Z,24.8
2018-08-30T07:14:59.018Z,24.8
2018-08-30T07:15:48.028Z,24.8
2018-08-30T07:16:37.782Z,24.8
2018-08-30T07:17:28.075Z,24.8
2018-08-30T07:18:16.801Z,24.8
2018-08-30T07:19:07.939Z,24.8
2018-08-30T07:19:58.032Z,24.8
2018-08-30T07:20:48.095Z,24.8
2018-08-30T07:21:38.477Z,24.8
2018-08-30T07:22:28.581Z,24.8
2018-08-30T07:23:18.858Z,24.8
2018-08-30T07:24:09.197Z,24.8
2018-08-30T07:24:58.432Z,24.9
2018-08-30T07:25:48.816Z,24.8
2018-08-30T07:26:38.579Z,24.8
2018-08-30T07:27:29.411Z,24.9
2018-08-30T07:28:19.114Z,24.9
2018-08-30T07:29:08.894Z,24.9
2018-08-30T07:29:58.931Z,24.9
2018-08-30T07:30:49.464Z,24.9
2018-08-30T07:31:39.124Z,24.9
2018-08-30T07:32:27.531Z,24.9
2018-08-30T07:33:18.611Z,24.9
2018-08-30T07:34:09.119Z,24.9
2018-08-30T07:35:02.924Z,24.9
2018-08-30T07:35:49.813Z,24.9
2018-08-30T07:36:38.884Z,24.9
2018-08-30T07:37:29.868Z,24.9
2018-08-30T07:38:19.554Z,24.9
2018-08-30T07:39:08.484Z,24.9
2018-08-30T07:39:59.303Z,24.9
2018-08-30T07:40:49.623Z,25
2018-08-30T07:41:40.275Z,24.9
2018-08-30T07:42:28.616Z,25
2018-08-30T07:43:20.036Z,25
2018-08-30T07:44:10.469Z,25
2018-08-30T07:44:59.629Z,25
2018-08-30T07:45:50.675Z,25
2018-08-30T07:46:39.234Z,25
2018-08-30T07:47:31.575Z,25
2018-08-30T07:48:20.778Z,25
2018-08-30T07:49:10.566Z,25
2018-08-30T07:50:00.951Z,25
2018-08-30T07:50:51.034Z,25
2018-08-30T07:51:40.772Z,25
2018-08-30T07:52:30.619Z,25
2018-08-30T07:53:20.835Z,25
2018-08-30T07:54:11.490Z,25
2018-08-30T07:55:00.397Z,25
2018-08-30T07:55:50.498Z,25
2018-08-30T07:56:40.900Z,25.1
2018-08-30T07:57:32.895Z,25
2018-08-30T07:58:21.000Z,25
2018-08-30T07:59:10.800Z,25.1
2018-08-30T08:00:02.531Z,25
2018-08-30T08:00:50.922Z,25
2018-08-30T08:01:40.992Z,25.1
2018-08-30T08:02:31.009Z,25
2018-08-30T08:03:21.896Z,25
2018-08-30T08:04:12.557Z,25
2018-08-30T08:05:01.033Z,25
2018-08-30T08:05:51.283Z,25
2018-08-30T08:06:41.346Z,25
2018-08-30T08:07:31.796Z,25
2018-08-30T08:08:22.068Z,25
2018-08-30T08:09:11.273Z,25
2018-08-30T08:10:01.974Z,25
2018-08-30T08:10:50.893Z,25.1
2018-08-30T08:11:41.861Z,25.1
2018-08-30T08:12:31.992Z,25
2018-08-30T08:13:22.135Z,25.1
2018-08-30T08:14:11.641Z,25
2018-08-30T08:15:02.036Z,25.1
2018-08-30T08:15:52.318Z,25.1
2018-08-30T08:16:42.440Z,25
2018-08-30T08:17:31.902Z,25.1
2018-08-30T08:18:22.551Z,25.1
2018-08-30T08:19:14.825Z,25.1
2018-08-30T08:20:02.682Z,25.1
2018-08-30T08:20:52.779Z,25.1
2018-08-30T08:21:42.514Z,25.1
2018-08-30T08:22:33.433Z,25.1
2018-08-30T08:23:23.203Z,25
2018-08-30T08:24:13.013Z,25.1
2018-08-30T08:25:03.793Z,25.1
2018-08-30T08:25:54.268Z,25.1
2018-08-30T08:26:42.662Z,25.1
2018-08-30T08:27:33.550Z,25.1
2018-08-30T08:28:23.648Z,25.1
2018-08-30T08:29:13.106Z,25.1
2018-08-30T08:30:03.789Z,25.1
2018-08-30T08:30:52.918Z,25.1
2018-08-30T08:31:43.927Z,25.1
2018-08-30T08:32:33.016Z,25.1
2018-08-30T08:33:23.654Z,25.1
2018-08-30T08:34:13.470Z,25.1
2018-08-30T08:35:04.376Z,25.1
2018-08-30T08:35:53.619Z,25.1
2018-08-30T08:36:44.507Z,25.1
2018-08-30T08:37:33.535Z,25.1
2018-08-30T08:38:23.294Z,25.1
2018-08-30T08:39:13.672Z,25.1
2018-08-30T08:40:03.724Z,25.1
2018-08-30T08:40:53.476Z,25.1
2018-08-30T08:41:44.362Z,25.1
2018-08-30T08:42:34.689Z,25.1
2018-08-30T08:43:24.759Z,25.1
2018-08-30T08:44:14.611Z,25.1
2018-08-30T08:45:04.014Z,25.1
2018-08-30T08:45:54.611Z,25.1
2018-08-30T08:46:44.823Z,25.1
2018-08-30T08:47:35.234Z,25.1
2018-08-30T08:48:24.579Z,25.1
2018-08-30T08:49:14.609Z,25.1
2018-08-30T08:50:05.301Z,25.1
2018-08-30T08:50:54.989Z,25.1
2018-08-30T08:51:45.738Z,25.1
2018-08-30T08:52:35.525Z,25.1
2018-08-30T08:53:25.274Z,25.1
2018-08-30T08:54:15.653Z,25.1
2018-08-30T08:55:05.996Z,25.1
2018-08-30T08:55:55.483Z,25.1
2018-08-30T08:56:44.746Z,25.1
2018-08-30T08:57:34.571Z,25.1
2018-08-30T09:14:48.917Z,25.1
2018-08-30T09:15:37.837Z,25.2
2018-08-30T09:16:27.418Z,25.2
2018-08-30T09:17:18.428Z,25.2
2018-08-30T09:18:07.786Z,25.2
2018-08-30T09:18:58.038Z,25.2
2018-08-30T09:19:48.583Z,25.2
2018-08-30T09:20:37.923Z,25.2
2018-08-30T09:21:28.281Z,25.2
2018-08-30T09:22:18.294Z,25.2
2018-08-30T09:23:08.237Z,25.2
2018-08-30T09:23:58.181Z,25.2
2018-08-30T09:24:48.457Z,25.2
2018-08-30T09:25:39.133Z,25.2
2018-08-30T09:26:29.178Z,25.2
2018-08-30T09:27:20.911Z,25.3
2018-08-30T09:28:07.700Z,25.2
2018-08-30T09:28:58.222Z,25.2
2018-08-30T09:29:49.360Z,25.2
2018-08-30T09:30:39.669Z,25.2
2018-08-30T09:31:28.783Z,25.2
2018-08-30T09:32:19.341Z,25.2
2018-08-30T09:33:09.354Z,25.2
2018-08-30T09:33:59.967Z,25.2
2018-08-30T09:34:48.525Z,25.3
2018-08-30T09:35:38.996Z,25.3
2018-08-30T09:36:29.124Z,25.3
2018-08-30T09:37:19.678Z,25.2
2018-08-30T09:38:08.989Z,25.3
2018-08-30T09:38:59.677Z,25.3
2018-08-30T09:39:50.419Z,25.3
2018-08-30T09:40:40.007Z,25.3
2018-08-30T09:41:30.024Z,25.3
2018-08-30T09:42:19.881Z,25.3
2018-08-30T09:43:09.845Z,25.3
2018-08-30T09:44:01.389Z,25.3
2018-08-30T09:44:50.426Z,25.3
2018-08-30T09:45:54.423Z,25.3
2018-08-30T09:46:30.116Z,25.3
2018-08-30T09:47:20.228Z,25.3
2018-08-30T09:48:10.559Z,25.3
2018-08-30T09:49:00.671Z,25.3
2018-08-30T09:49:51.320Z,25.3
2018-08-30T09:50:40.757Z,25.3
2018-08-30T09:51:30.511Z,25.3
2018-08-30T09:52:20.035Z,25.3
2018-08-30T09:53:10.918Z,25.3
2018-08-30T09:54:00.445Z,25.3
2018-08-30T09:54:51.685Z,25.3
2018-08-30T09:55:41.578Z,25.3
2018-08-30T09:56:32.178Z,25.3
2018-08-30T09:57:24.409Z,25.3
2018-08-30T09:58:11.370Z,25.3
2018-08-30T09:59:01.385Z,25.3
2018-08-30T09:59:51.788Z,25.3
2018-08-30T10:00:42.126Z,25.3
2018-08-30T10:01:31.522Z,25.3
2018-08-30T10:02:21.455Z,25.3
2018-08-30T10:03:11.310Z,25.3
2018-08-30T10:04:02.897Z,25.3
2018-08-30T10:04:52.947Z,25.3
2018-08-30T10:05:41.902Z,25.3
2018-08-30T10:06:31.094Z,25.3
2018-08-30T10:07:22.030Z,25.3
2018-08-30T10:08:12.134Z,25.3
2018-08-30T10:09:01.451Z,25.3
2018-08-30T10:09:52.767Z,25.3
2018-08-30T10:10:42.395Z,25.3
2018-08-30T10:11:32.688Z,25.3
2018-08-30T10:12:22.182Z,25.3
2018-08-30T10:13:11.412Z,25.3
2018-08-30T10:14:02.310Z,25.3
2018-08-30T10:14:52.074Z,25.3
2018-08-30T10:15:42.666Z,25.3
2018-08-30T10:16:31.781Z,25.3
2018-08-30T10:17:22.054Z,25.3
2018-08-30T10:18:13.142Z,25.3
2018-08-30T10:19:02.229Z,25.3
2018-08-30T10:19:53.469Z,25.3
2018-08-30T10:20:42.266Z,25.3
2018-08-30T10:21:35.074Z,25.3
2018-08-30T10:22:22.324Z,25.3
2018-08-30T10:23:12.509Z,25.3
2018-08-30T10:24:02.828Z,25.3
2018-08-30T10:24:53.701Z,25.3
2018-08-30T10:25:44.127Z,25.3
2018-08-30T10:26:34.156Z,25.3
2018-08-30T10:27:23.198Z,25.3
2018-08-30T10:28:12.899Z,25.3
2018-08-30T10:29:03.195Z,25.3
2018-08-30T10:29:52.427Z,25.3
2018-08-30T10:30:43.506Z,25.3
2018-08-30T10:31:34.947Z,25.3
2018-08-30T10:32:23.748Z,25.3
2018-08-30T10:33:12.620Z,25.3
2018-08-30T10:34:03.620Z,25.3
2018-08-30T10:34:54.243Z,25.3
2018-08-30T10:35:44.596Z,25.4
2018-08-30T10:36:34.062Z,25.3
2018-08-30T10:37:23.348Z,25.4
2018-08-30T10:38:14.718Z,25.3
2018-08-30T10:39:05.045Z,25.3
2018-08-30T10:39:54.569Z,25.3
2018-08-30T10:40:43.842Z,25.4
2018-08-30T10:41:33.617Z,25.4
2018-08-30T10:42:24.325Z,25.4
2018-08-30T10:43:15.203Z,25.4
2018-08-30T10:44:04.905Z,25.4
2018-08-30T10:44:55.283Z,25.4
2018-08-30T10:45:44.196Z,25.3
2018-08-30T10:46:33.177Z,25.4
2018-08-30T10:47:23.797Z,25.4
2018-08-30T10:48:15.924Z,25.4
2018-08-30T10:49:04.755Z,25.4
2018-08-30T10:49:55.874Z,25.4
2018-08-30T10:50:44.828Z,25.4
2018-08-30T10:51:34.684Z,25.4
2018-08-30T10:52:25.567Z,25.4
2018-08-30T10:53:15.360Z,25.4
2018-08-30T10:54:05.982Z,25.4
2018-08-30T10:54:54.987Z,25.4
2018-08-30T10:55:45.267Z,25.3
2018-08-30T10:56:36.187Z,25.4
2018-08-30T10:57:26.840Z,25.4
2018-08-30T10:58:19.651Z,25.4
2018-08-30T10:59:06.461Z,25.4
2018-08-30T10:59:57.646Z,25.4
2018-08-30T11:00:50.504Z,25.4
2018-08-30T11:01:50.967Z,25.4
2018-08-30T11:02:26.469Z,25.4
2018-08-30T11:03:21.769Z,25.4
2018-08-30T11:04:07.367Z,25.4
2018-08-30T11:04:58.864Z,25.4
2018-08-30T11:05:51.416Z,25.4
2018-08-30T11:06:41.636Z,25.4
2018-08-30T11:07:31.753Z,25.4
2018-08-30T11:08:18.648Z,25.4
2018-08-30T11:09:06.930Z,25.4
2018-08-30T11:09:59.376Z,25.4
2018-08-30T11:10:48.303Z,25.4
2018-08-30T11:11:39.103Z,25.4
2018-08-30T11:12:26.749Z,25.4
2018-08-30T11:13:19.659Z,25.4
2018-08-30T11:14:12.788Z,25.4
2018-08-30T11:14:58.178Z,25.4
2018-08-30T11:15:49.709Z,25.4
2018-08-30T11:16:38.956Z,25.4
2018-08-30T11:17:28.613Z,25.4
2018-08-30T11:18:18.941Z,25.4
2018-08-30T11:19:07.358Z,25.4
2018-08-30T11:19:58.458Z,25.4
2018-08-30T11:20:47.601Z,25.4
2018-08-30T11:21:39.377Z,25.4
2018-08-30T11:22:29.075Z,25.4
2018-08-30T11:23:18.560Z,25.4
2018-08-30T11:24:11.640Z,25.4
2018-08-30T11:25:00.553Z,25.4
2018-08-30T11:25:49.340Z,25.4
2018-08-30T11:26:38.900Z,25.4
2018-08-30T11:27:27.507Z,25.4
2018-08-30T11:28:18.631Z,25.4
2018-08-30T11:29:08.307Z,25.4
2018-08-30T11:29:58.347Z,25.4
2018-08-30T11:30:47.860Z,25.4
2018-08-30T11:31:40.175Z,25.4
2018-08-30T11:32:28.939Z,25.4
2018-08-30T11:33:18.430Z,25.4
2018-08-30T11:34:09.294Z,25.4
2018-08-30T11:35:00.395Z,25.4
2018-08-30T11:35:48.670Z,25.4
2018-08-30T11:36:38.740Z,25.4
2018-08-30T11:37:29.170Z,25.4
2018-08-30T11:38:18.665Z,25.4
2018-08-30T11:39:08.354Z,25.4
2018-08-30T11:39:58.974Z,25.4
2018-08-30T11:40:49.677Z,25.4
2018-08-30T11:41:44.115Z,25.4
2018-08-30T11:42:30.089Z,25.4
2018-08-30T11:43:20.698Z,25.5
2018-08-30T11:44:10.758Z,25.4
2018-08-30T11:44:59.846Z,25.4
2018-08-30T11:45:50.704Z,25.5
2018-08-30T11:46:40.490Z,25.4
2018-08-30T11:47:29.537Z,25.5
2018-08-30T11:48:17.994Z,25.4
2018-08-30T11:49:10.077Z,25.5
2018-08-30T11:49:59.849Z,25.5
2018-08-30T11:51:04.719Z,25.5
2018-08-30T11:51:39.509Z,25.5
2018-08-30T11:52:31.847Z,25.4
2018-08-30T11:53:19.660Z,25.5
2018-08-30T11:54:11.021Z,25.4
2018-08-30T11:55:00.441Z,25.5
2018-08-30T11:55:50.515Z,25.4
2018-08-30T11:56:41.151Z,25.5
2018-08-30T11:57:28.998Z,25.5
2018-08-30T11:58:20.168Z,25.4
2018-08-30T11:59:11.071Z,25.5
2018-08-30T12:00:00.840Z,25.5
2018-08-30T12:00:52.323Z,25.5
2018-08-30T12:01:40.797Z,25.5
2018-08-30T12:02:31.843Z,25.4
2018-08-30T12:03:19.788Z,25.5
2018-08-30T12:04:10.606Z,25.4
2018-08-30T12:05:01.310Z,25.5
2018-08-30T12:05:49.609Z,25.5
2018-08-30T12:06:40.537Z,25.5
2018-08-30T12:07:31.493Z,25.6
2018-08-30T12:08:23.157Z,25.5
2018-08-30T12:09:11.860Z,25.5
2018-08-30T12:10:17.925Z,25.4
2018-08-30T12:11:09.570Z,25.6
2018-08-30T12:11:41.823Z,25.6
2018-08-30T12:12:32.618Z,25.5
2018-08-30T12:13:21.927Z,25.5
2018-08-30T12:14:11.703Z,25.4
2018-08-30T12:15:00.891Z,25.5
2018-08-30T12:15:51.881Z,25.6
2018-08-30T12:16:42.754Z,25.5
2018-08-30T12:17:32.702Z,25.5
2018-08-30T12:18:23.049Z,25.5
2018-08-30T12:19:11.672Z,25.6
2018-08-30T12:20:02.992Z,25.6
2018-08-30T12:20:54.783Z,25.5
2018-08-30T12:21:57.508Z,25.5
2018-08-30T12:22:33.438Z,25.6
2018-08-30T12:23:22.376Z,25.6
2018-08-30T12:24:12.764Z,25.6
2018-08-30T12:25:02.324Z,25.6
2018-08-30T12:25:52.023Z,25.6
2018-08-30T12:26:43.030Z,25.6
2018-08-30T12:27:32.911Z,25.5
2018-08-30T12:28:23.298Z,25.6
2018-08-30T12:29:14.748Z,25.6
2018-08-30T12:30:03.959Z,25.6
2018-08-30T12:30:52.137Z,25.6
2018-08-30T12:31:45.601Z,25.6
2018-08-30T12:32:34.513Z,25.6
2018-08-30T12:33:23.716Z,25.6
2018-08-30T12:34:14.978Z,25.5
2018-08-30T12:35:06.125Z,25.6
2018-08-30T12:35:56.839Z,25.5
2018-08-30T12:36:44.711Z,25.5
2018-08-30T12:37:34.246Z,25.6
2018-08-30T12:38:24.760Z,25.6
2018-08-30T12:39:15.528Z,25.6
2018-08-30T12:40:08.395Z,25.6
2018-08-30T12:40:53.501Z,25.6
2018-08-30T12:41:45.735Z,25.5
2018-08-30T12:42:36.050Z,25.6
2018-08-30T12:43:27.529Z,25.6
2018-08-30T12:44:15.548Z,25.6
2018-08-30T12:45:05.299Z,25.6
2018-08-30T12:45:54.484Z,25.6
2018-08-30T12:46:45.758Z,25.6
2018-08-30T12:47:35.479Z,25.6
2018-08-30T12:48:25.600Z,25.6
2018-08-30T12:49:14.575Z,25.6
2018-08-30T12:50:05.334Z,25.6
2018-08-30T12:50:58.714Z,25.6
2018-08-30T12:51:51.389Z,25.6
2018-08-30T12:52:39.675Z,25.6
2018-08-30T12:53:29.490Z,25.6
2018-08-30T12:54:19.539Z,25.6
2018-08-30T12:55:08.884Z,25.6
2018-08-30T12:55:57.919Z,25.6
2018-08-30T12:56:49.139Z,25.6
2018-08-30T12:57:38.981Z,25.5
2018-08-30T12:58:31.550Z,25.6
2018-08-30T12:59:17.084Z,25.6
2018-08-30T13:00:10.968Z,25.6
2018-08-30T13:01:00.754Z,25.6
2018-08-30T13:01:52.428Z,25.6
2018-08-30T13:02:42.472Z,25.6
2018-08-30T13:03:32.861Z,25.6
2018-08-30T13:04:20.708Z,25.6
2018-08-30T13:05:15.397Z,25.6
2018-08-30T13:06:04.131Z,25.6
2018-08-30T13:06:51.202Z,25.6
2018-08-30T13:07:42.750Z,25.6
2018-08-30T13:08:34.434Z,25.6
2018-08-30T13:09:27.291Z,25.6
2018-08-30T13:10:16.613Z,25.6
2018-08-30T13:11:03.225Z,25.6
2018-08-30T13:11:56.444Z,25.6
2018-08-30T13:12:46.168Z,25.6
2018-08-30T13:13:34.737Z,25.6
2018-08-30T13:14:26.770Z,25.6
2018-08-30T13:15:19.848Z,25.6
2018-08-30T13:16:04.243Z,25.6
2018-08-30T13:16:54.708Z,25.6
2018-08-30T13:17:40.756Z,25.6
2018-08-30T13:18:33.379Z,25.6
2018-08-30T13:19:31.127Z,25.6
2018-08-30T13:20:14.132Z,25.6
2018-08-30T13:21:04.423Z,25.6
2018-08-30T13:21:54.721Z,25.6
2018-08-30T13:22:48.768Z,25.6
2018-08-30T13:23:34.246Z,25.6
2018-08-30T13:24:23.210Z,25.7
2018-08-30T13:25:19.223Z,25.7
2018-08-30T13:26:19.375Z,25.6
2018-08-30T13:26:54.811Z,25.6
2018-08-30T13:27:47.486Z,25.6
2018-08-30T13:28:36.255Z,25.6
2018-08-30T13:29:24.186Z,25.7
2018-08-30T13:30:17.837Z,25.7
2018-08-30T13:31:10.249Z,25.7
2018-08-30T13:32:02.593Z,25.7
2018-08-30T13:32:49.949Z,25.7
2018-08-30T13:33:42.219Z,25.7
2018-08-30T13:34:36.067Z,25.7
2018-08-30T13:35:26.462Z,25.7
2018-08-30T13:36:11.167Z,25.7
2018-08-30T13:37:03.892Z,25.6
2018-08-30T13:37:50.240Z,25.7
2018-08-30T13:38:40.744Z,25.7
2018-08-30T13:39:31.440Z,25.7
2018-08-30T13:40:24.029Z,25.7
2018-08-30T13:41:14.020Z,25.7
2018-08-30T13:41:59.885Z,25.6
2018-08-30T13:42:48.075Z,25.7
2018-08-30T13:43:41.010Z,25.7
2018-08-30T13:44:34.072Z,25.6
2018-08-30T13:45:20.456Z,25.7
2018-08-30T13:46:15.928Z,25.7
2018-08-30T13:47:01.211Z,25.7
2018-08-30T13:47:53.012Z,25.7
2018-08-30T13:48:40.902Z,25.7
2018-08-30T13:49:27.431Z,25.6
2018-08-30T13:50:21.349Z,25.7
2018-08-30T13:51:09.561Z,25.7
2018-08-30T13:52:07.771Z,25.8
2018-08-30T13:52:49.172Z,25.8
2018-08-30T13:53:43.177Z,25.7
2018-08-30T13:54:30.090Z,25.7
2018-08-30T13:55:24.056Z,25.8
2018-08-30T13:56:12.153Z,25.7
2018-08-30T13:57:03.750Z,25.8
2018-08-30T13:58:00.923Z,25.7
2018-08-30T13:59:01.323Z,25.7
2018-08-30T13:59:32.226Z,25.8
2018-08-30T14:00:28.485Z,25.8
2018-08-30T14:01:22.011Z,25.8
2018-08-30T14:02:02.302Z,25.8
2018-08-30T14:02:47.622Z,25.8
2018-08-30T14:03:37.751Z,25.8
2018-08-30T14:04:28.279Z,25.8
2018-08-30T14:05:21.933Z,25.8
2018-08-30T14:06:12.832Z,25.8
2018-08-30T14:07:04.163Z,25.8
2018-08-30T14:07:46.157Z,25.8
2018-08-30T14:08:41.919Z,25.8
2018-08-30T14:09:31.564Z,25.8
2018-08-30T14:10:24.588Z,25.8
2018-08-30T14:11:10.047Z,25.8
2018-08-30T14:12:02.187Z,25.8
2018-08-30T14:12:50.204Z,25.8
2018-08-30T14:13:41.421Z,25.8
2018-08-30T14:14:30.727Z,25.8
2018-08-30T14:15:25.641Z,25.8
2018-08-30T14:16:01.279Z,25.8
2018-08-30T14:16:53.154Z,26
2018-08-30T14:17:41.742Z,25.8
2018-08-30T14:18:31.865Z,25.8
2018-08-30T14:19:24.628Z,25.8
2018-08-30T14:20:11.853Z,25.8
2018-08-30T14:21:02.531Z,25.8
2018-08-30T14:21:53.145Z,25.8
2018-08-30T14:22:42.253Z,25.8
2018-08-30T14:23:33.154Z,25.8
2018-08-30T14:24:22.455Z,25.8
2018-08-30T14:25:12.174Z,25.8
2018-08-30T14:26:01.486Z,25.8
2018-08-30T14:26:54.434Z,25.8
2018-08-30T14:27:42.170Z,25.8
2018-08-30T14:28:31.828Z,25.9
2018-08-30T14:29:22.959Z,25.8
2018-08-30T14:30:12.671Z,25.9
2018-08-30T14:31:02.778Z,25.8
2018-08-30T14:31:52.939Z,25.8
2018-08-30T14:32:43.346Z,25.9
2018-08-30T14:33:31.768Z,25.9
2018-08-30T14:34:22.697Z,25.9
2018-08-30T14:35:13.227Z,25.9
2018-08-30T14:36:03.420Z,25.9
2018-08-30T14:36:53.353Z,25.9
2018-08-30T14:37:44.265Z,25.9
2018-08-30T14:38:33.746Z,26.2
2018-08-30T14:39:24.314Z,25.9
2018-08-30T14:40:14.712Z,25.9
2018-08-30T14:41:23.611Z,25.9
2018-08-30T14:41:57.524Z,25.9
2018-08-30T14:42:43.492Z,25.9
2018-08-30T14:43:33.385Z,25.9
2018-08-30T14:44:23.750Z,25.9
2018-08-30T14:45:13.648Z,25.9
2018-08-30T14:46:04.381Z,25.9
2018-08-30T14:46:53.556Z,25.9
2018-08-30T14:47:48.996Z,25.9
2018-08-30T14:48:34.290Z,26.2
2018-08-30T14:49:23.592Z,25.9
2018-08-30T14:50:14.897Z,25.9
2018-08-30T14:51:04.959Z,25.9
2018-08-30T14:51:55.948Z,25.9
2018-08-30T14:52:44.265Z,25.9
2018-08-30T14:53:53.653Z,25.9
2018-08-30T14:54:27.901Z,25.9
2018-08-30T14:55:14.918Z,25.9
2018-08-30T14:56:04.136Z,25.9
2018-08-30T14:56:55.216Z,25.9
2018-08-30T14:57:44.167Z,25.9
2018-08-30T14:58:35.158Z,25.9
2018-08-30T14:59:26.660Z,25.9
2018-08-30T15:00:17.322Z,25.9
2018-08-30T15:01:04.542Z,25.9
2018-08-30T15:01:55.485Z,25.9
2018-08-30T15:02:44.257Z,26
2018-08-30T15:03:35.797Z,25.9
2018-08-30T15:04:26.044Z,25.9
2018-08-30T15:05:17.268Z,25.9
2018-08-30T15:06:08.907Z,25.9
2018-08-30T15:06:55.533Z,25.9
2018-08-30T15:07:45.019Z,25.9
2018-08-30T15:08:36.612Z,26
2018-08-30T15:09:25.488Z,25.9
2018-08-30T15:10:15.666Z,25.9
2018-08-30T15:11:05.905Z,25.9
2018-08-30T15:11:55.581Z,25.9
2018-08-30T15:12:48.536Z,26
2018-08-30T15:13:36.505Z,26
2018-08-30T15:14:26.311Z,25.9
2018-08-30T15:15:15.858Z,26
2018-08-30T15:16:06.626Z,26
2018-08-30T15:16:55.501Z,26
2018-08-30T15:17:47.372Z,26
2018-08-30T15:18:37.044Z,26
2018-08-30T15:19:26.195Z,25.9
2018-08-30T15:20:18.340Z,26
2018-08-30T15:21:07.127Z,26
2018-08-30T15:21:56.314Z,26
2018-08-30T15:22:45.978Z,26
2018-08-30T15:23:39.445Z,26
2018-08-30T15:24:25.668Z,26
2018-08-30T15:25:16.923Z,26
2018-08-30T15:26:06.369Z,26
2018-08-30T15:26:59.621Z,26
2018-08-30T15:27:47.180Z,26
2018-08-30T15:28:38.108Z,26
2018-08-30T15:29:30.372Z,26
2018-08-30T15:30:17.529Z,26
2018-08-30T15:31:07.115Z,26
2018-08-30T15:31:56.538Z,26
2018-08-30T15:32:47.734Z,26
2018-08-30T15:33:37.895Z,26
2018-08-30T15:34:26.917Z,26
2018-08-30T15:35:22.604Z,26
2018-08-30T15:36:07.410Z,26
2018-08-30T15:36:57.952Z,26
2018-08-30T15:37:47.822Z,26
2018-08-30T15:38:38.658Z,26.1
2018-08-30T15:39:28.425Z,26
2018-08-30T15:40:32.902Z,26
2018-08-30T15:41:08.084Z,26
2018-08-30T15:41:57.450Z,26
2018-08-30T15:42:48.324Z,26
2018-08-30T15:43:38.401Z,26
2018-08-30T15:44:28.899Z,26
2018-08-30T15:45:17.914Z,26
2018-08-30T15:46:11.062Z,26.1
2018-08-30T15:46:59.067Z,26.1
2018-08-30T15:47:48.145Z,26
2018-08-30T15:48:41.158Z,26
2018-08-30T15:49:30.071Z,26.1
2018-08-30T15:50:19.451Z,26.1
2018-08-30T15:51:10.189Z,26.1
2018-08-30T15:51:59.561Z,26
2018-08-30T15:52:50.511Z,26.1
2018-08-30T15:53:38.727Z,26.1
2018-08-30T15:54:28.866Z,26.1
2018-08-30T15:55:19.956Z,26.1
2018-08-30T15:56:11.687Z,26.1
2018-08-30T15:56:59.455Z,26.1
2018-08-30T16:15:44.715Z,26
2018-08-30T16:16:34.816Z,26.1
2018-08-30T16:17:27.660Z,26.1
2018-08-30T16:18:12.839Z,26.1
2018-08-30T16:19:06.016Z,26.1
2018-08-30T16:19:55.228Z,26.1
2018-08-30T16:20:45.411Z,26.1
2018-08-30T16:21:35.344Z,26.1
2018-08-30T16:22:26.896Z,26.1
2018-08-30T16:23:17.493Z,26.1
2018-08-30T16:24:04.824Z,26.1
2018-08-30T16:24:58.216Z,26.1
2018-08-30T16:25:47.196Z,26.1
2018-08-30T16:26:36.058Z,26.1
2018-08-30T16:27:24.692Z,26.1
2018-08-30T16:28:15.840Z,26.1
2018-08-30T16:29:07.402Z,26.1
2018-08-30T16:29:54.951Z,26.1
2018-08-30T16:30:48.864Z,26.1
2018-08-30T16:31:36.709Z,26.1
2018-08-30T16:32:25.006Z,26.1
2018-08-30T16:33:16.428Z,26.1
2018-08-30T16:34:05.565Z,26.1
2018-08-30T16:34:55.858Z,26.1
2018-08-30T16:35:45.903Z,26.1
2018-08-30T16:36:37.790Z,26.1
2018-08-30T16:37:25.913Z,26.1
2018-08-30T16:38:16.051Z,26.1
2018-08-30T16:39:05.692Z,26.1
2018-08-30T16:40:01.235Z,26.1
2018-08-30T16:40:46.353Z,26.1
2018-08-30T16:41:37.793Z,26.1
2018-08-30T16:42:26.497Z,26.1
2018-08-30T16:43:18.560Z,26.1
2018-08-30T16:44:06.859Z,26.1
2018-08-30T16:44:56.487Z,26.1
2018-08-30T16:45:46.468Z,26.1
2018-08-30T16:46:37.179Z,26.1
2018-08-30T16:47:28.252Z,26.1
2018-08-30T16:48:17.173Z,26.1
2018-08-30T16:49:08.195Z,26.1
2018-08-30T16:49:56.854Z,26.1
2018-08-30T16:50:47.324Z,26
2018-08-30T16:51:37.499Z,26.1
2018-08-30T16:52:27.294Z,26.1
2018-08-30T16:53:18.459Z,26.1
2018-08-30T16:54:07.519Z,26.1
2018-08-30T16:54:57.384Z,26.1
2018-08-30T16:55:49.689Z,26.1
2018-08-30T16:56:37.730Z,26.1
2018-08-30T16:57:29.209Z,26.1
2018-08-30T16:58:17.171Z,26.1
2018-08-30T16:59:09.884Z,26.1
2018-08-30T16:59:57.641Z,26.1
2018-08-30T17:00:48.963Z,26.1
2018-08-30T17:01:37.266Z,26.1
2018-08-30T17:02:30.337Z,26.1
2018-08-30T17:03:17.528Z,26.1
2018-08-30T17:04:09.043Z,26.1
2018-08-30T17:04:59.430Z,26.1
2018-08-30T17:05:48.410Z,26.1
2018-08-30T17:06:40.557Z,26.1
2018-08-30T17:07:28.518Z,26.1
2018-08-30T17:08:18.609Z,26.1
2018-08-30T17:09:08.353Z,26
2018-08-30T17:09:58.397Z,26
2018-08-30T17:10:48.420Z,26
2018-08-30T17:11:39.625Z,26.1
2018-08-30T17:12:28.072Z,26.1
2018-08-30T17:13:18.928Z,25.9
2018-08-30T17:14:08.513Z,26
2018-08-30T17:15:00.156Z,26.1
2018-08-30T17:15:48.891Z,26
2018-08-30T17:16:39.413Z,26.1
2018-08-30T17:17:30.898Z,26
2018-08-30T17:18:21.826Z,26
2018-08-30T17:19:09.382Z,26
2018-08-30T17:19:59.468Z,26
2018-08-30T17:20:49.610Z,26
2018-08-30T17:21:40.433Z,26
2018-08-30T17:22:30.355Z,26
2018-08-30T17:23:19.345Z,26
2018-08-30T17:24:09.877Z,26
2018-08-30T17:25:00.863Z,26
2018-08-30T17:25:49.933Z,26
2018-08-30T17:26:39.665Z,26
2018-08-30T17:27:30.371Z,26
2018-08-30T17:28:20.929Z,26
2018-08-30T17:29:11.342Z,26
2018-08-30T17:30:00.198Z,25.9
2018-08-30T17:30:49.402Z,26
2018-08-30T17:31:40.125Z,26
2018-08-30T17:32:31.182Z,25.9
2018-08-30T17:33:21.187Z,26
2018-08-30T17:34:10.627Z,26
2018-08-30T17:35:00.337Z,26
2018-08-30T17:35:51.822Z,26
2018-08-30T17:36:41.762Z,25.9
2018-08-30T17:37:31.634Z,26
2018-08-30T17:38:21.087Z,25.9
2018-08-30T17:39:12.105Z,25.9
2018-08-30T17:40:01.582Z,25.9
2018-08-30T17:40:51.440Z,25.9
2018-08-30T17:41:41.167Z,26
2018-08-30T17:42:32.907Z,25.9
2018-08-30T17:43:19.907Z,26
2018-08-30T17:44:11.686Z,25.9
2018-08-30T17:45:01.469Z,25.9
2018-08-30T17:45:51.659Z,25.9
2018-08-30T17:46:40.945Z,25.9
2018-08-30T17:47:31.304Z,25.9
2018-08-30T17:48:22.524Z,25.9
2018-08-30T17:49:11.821Z,25.9
2018-08-30T17:50:03.004Z,25.9
2018-08-30T17:50:51.774Z,25.9
2018-08-30T17:51:41.827Z,25.9
2018-08-30T17:52:32.210Z,25.9
2018-08-30T17:53:22.406Z,25.9
2018-08-30T17:54:13.172Z,25.9
2018-08-30T17:55:03.142Z,25.9
2018-08-30T17:55:53.234Z,25.9
2018-08-30T17:56:44.066Z,25.9
2018-08-30T17:57:32.074Z,25.9
2018-08-30T17:58:22.843Z,25.9
2018-08-30T17:59:12.900Z,25.9
2018-08-30T18:00:03.896Z,25.9
2018-08-30T18:00:52.613Z,25.9
2018-08-30T18:01:43.331Z,25.9
2018-08-30T18:02:33.226Z,25.9
2018-08-30T18:03:24.050Z,25.9
2018-08-30T18:04:12.647Z,25.9
2018-08-30T18:05:03.245Z,25.9
2018-08-30T18:05:53.349Z,25.9
2018-08-30T18:06:44.208Z,25.9
2018-08-30T18:07:32.786Z,25.9
2018-08-30T18:08:23.415Z,25.9
2018-08-30T18:09:13.975Z,25.9
2018-08-30T18:10:04.627Z,25.9
2018-08-30T18:10:53.929Z,25.9
2018-08-30T18:11:42.468Z,25.9
2018-08-30T18:12:35.309Z,25.9
2018-08-30T18:13:23.507Z,25.9
2018-08-30T18:14:13.803Z,25.9
2018-08-30T18:15:03.650Z,25.9
2018-08-30T18:15:53.719Z,25.9
2018-08-30T18:16:43.763Z,25.9